RYR445 ESGG-EKCH
Flight info
| Callsign | RYR445 |
|---|---|
| Flight time | 0h 27m |
| Altitude | 17000 |
| Route | TOPLA L996 ERNOV |
| Aircraft | B738/M-SDE2E3FGHIRWXY/LB1 |
Departure
| Time | 2026-05-04 17:23 |
|---|---|
| Airport | Göteborg Landvetter Airport (ESGG) |
Arrival
| Time | 2026-05-04 17:50 |
|---|---|
| Airport | Copenhagen Kastrup Airport (EKCH) |
| Time | Latitude | Longitude | Altitude | Speed | Heading |
|---|---|---|---|---|---|
| 2026-05-04 16:53 | 57.66779 | 12.29311 | 526 ft | 0 kts | 117° |
| 2026-05-04 17:13 | 57.66823 | 12.29220 | 526 ft | 4 kts | 172° |
| 2026-05-04 17:14 | 57.66836 | 12.29222 | 526 ft | 0 kts | 233° |
| 2026-05-04 17:17 | 57.66828 | 12.29214 | 526 ft | 0 kts | 206° |
| 2026-05-04 17:17 | 57.66855 | 12.28986 | 525 ft | 21 kts | 16° |
| 2026-05-04 17:18 | 57.67025 | 12.29169 | 527 ft | 47 kts | 26° |
| 2026-05-04 17:18 | 57.67273 | 12.29397 | 530 ft | 9 kts | 27° |
| 2026-05-04 17:19 | 57.67421 | 12.29431 | 531 ft | 0 kts | 303° |
| 2026-05-04 17:19 | 57.67423 | 12.29425 | 531 ft | 7 kts | 303° |
| 2026-05-04 17:20 | 57.67459 | 12.29255 | 531 ft | 0 kts | 272° |
| 2026-05-04 17:20 | 57.67442 | 12.29064 | 529 ft | 26 kts | 244° |
| 2026-05-04 17:21 | 57.67395 | 12.28986 | 530 ft | 0 kts | 208° |
| 2026-05-04 17:21 | 57.67268 | 12.28869 | 530 ft | 36 kts | 206° |
| 2026-05-04 17:22 | 57.66917 | 12.28545 | 525 ft | 76 kts | 206° |
| 2026-05-04 17:22 | 57.66344 | 12.28021 | 518 ft | 107 kts | 205° |
| 2026-05-04 17:23 | 57.63089 | 12.24885 | 1296 ft | 237 kts | 212° |
| 2026-05-04 17:23 | 57.61541 | 12.23351 | 1862 ft | 267 kts | 209° |
| 2026-05-04 17:23 | 57.57407 | 12.22368 | 3215 ft | 318 kts | 178° |
| 2026-05-04 17:24 | 57.55187 | 12.22763 | 4114 ft | 329 kts | 178° |
| 2026-05-04 17:24 | 57.47819 | 12.24982 | 5567 ft | 383 kts | 174° |
| 2026-05-04 17:25 | 57.45202 | 12.25829 | 6053 ft | 395 kts | 173° |
| 2026-05-04 17:25 | 57.39856 | 12.27244 | 8317 ft | 366 kts | 179° |
| 2026-05-04 17:26 | 57.35123 | 12.28260 | 8350 ft | 314 kts | 179° |
| 2026-05-04 17:26 | 57.28545 | 12.29856 | 7840 ft | 340 kts | 178° |
| 2026-05-04 17:27 | 57.23549 | 12.31206 | 7162 ft | 365 kts | 174° |
| 2026-05-04 17:27 | 57.18637 | 12.32625 | 8654 ft | 351 kts | 177° |
| 2026-05-04 17:28 | 57.13884 | 12.33926 | 11245 ft | 310 kts | 179° |
| 2026-05-04 17:29 | 57.07065 | 12.34672 | 10897 ft | 395 kts | 183° |
| 2026-05-04 17:29 | 56.99442 | 12.36432 | 14289 ft | 347 kts | 176° |
| 2026-05-04 17:30 | 56.92579 | 12.38404 | 14132 ft | 398 kts | 177° |
| 2026-05-04 17:31 | 56.87122 | 12.39953 | 15395 ft | 383 kts | 178° |
| 2026-05-04 17:31 | 56.79447 | 12.42173 | 16917 ft | 385 kts | 177° |
| 2026-05-04 17:32 | 56.74005 | 12.43336 | 17037 ft | 402 kts | 179° |
| 2026-05-04 17:33 | 56.65484 | 12.45566 | 17894 ft | 403 kts | 176° |
| 2026-05-04 17:33 | 56.62573 | 12.46313 | 16980 ft | 433 kts | 178° |
| 2026-05-04 17:34 | 56.53215 | 12.48560 | 14061 ft | 502 kts | 177° |
| 2026-05-04 17:34 | 56.49743 | 12.49233 | 13141 ft | 509 kts | 178° |
| 2026-05-04 17:35 | 56.39543 | 12.50608 | 9091 ft | 439 kts | 180° |
| 2026-05-04 17:35 | 56.34360 | 12.51286 | 9595 ft | 340 kts | 179° |
| 2026-05-04 17:35 | 56.31917 | 12.51805 | 8074 ft | 357 kts | 179° |
| 2026-05-04 17:36 | 56.29523 | 12.52173 | 7855 ft | 336 kts | 179° |
| 2026-05-04 17:36 | 56.27176 | 12.52741 | 6837 ft | 342 kts | 176° |
| 2026-05-04 17:36 | 56.24777 | 12.53247 | 6299 ft | 342 kts | 179° |
| 2026-05-04 17:36 | 56.22474 | 12.53384 | 7126 ft | 331 kts | 184° |
| 2026-05-04 17:37 | 56.20144 | 12.53287 | 7451 ft | 331 kts | 185° |
| 2026-05-04 17:37 | 56.17896 | 12.53143 | 7976 ft | 322 kts | 187° |
| 2026-05-04 17:37 | 56.15608 | 12.52880 | 7858 ft | 334 kts | 188° |
| 2026-05-04 17:37 | 56.13338 | 12.52578 | 7771 ft | 317 kts | 189° |
| 2026-05-04 17:38 | 56.11082 | 12.52144 | 6712 ft | 325 kts | 192° |
| 2026-05-04 17:38 | 56.08900 | 12.51537 | 6149 ft | 313 kts | 193° |
| 2026-05-04 17:38 | 56.06789 | 12.50792 | 5491 ft | 306 kts | 196° |
| 2026-05-04 17:38 | 56.04753 | 12.49915 | 5034 ft | 294 kts | 199° |
| 2026-05-04 17:39 | 56.01128 | 12.47755 | 4526 ft | 269 kts | 203° |
| 2026-05-04 17:39 | 55.99327 | 12.46625 | 4390 ft | 281 kts | 198° |
| 2026-05-04 17:39 | 55.97378 | 12.46111 | 4797 ft | 283 kts | 194° |
| 2026-05-04 17:40 | 55.95461 | 12.45239 | 5129 ft | 283 kts | 195° |
| 2026-05-04 17:40 | 55.93538 | 12.45403 | 5013 ft | 282 kts | 162° |
| 2026-05-04 17:40 | 55.91934 | 12.47358 | 4354 ft | 290 kts | 135° |
| 2026-05-04 17:40 | 55.90519 | 12.49840 | 4104 ft | 275 kts | 137° |
| 2026-05-04 17:41 | 55.89184 | 12.52150 | 3764 ft | 261 kts | 135° |
| 2026-05-04 17:41 | 55.88279 | 12.54877 | 3348 ft | 252 kts | 107° |
| 2026-05-04 17:41 | 55.87949 | 12.57765 | 3436 ft | 224 kts | 97° |
| 2026-05-04 17:41 | 55.87670 | 12.60386 | 3761 ft | 205 kts | 102° |
| 2026-05-04 17:42 | 55.87371 | 12.62867 | 3723 ft | 212 kts | 99° |
| 2026-05-04 17:42 | 55.87100 | 12.65601 | 3635 ft | 226 kts | 97° |
| 2026-05-04 17:42 | 55.86892 | 12.68278 | 4053 ft | 215 kts | 97° |
| 2026-05-04 17:42 | 55.86685 | 12.71046 | 3993 ft | 237 kts | 97° |
| 2026-05-04 17:43 | 55.86463 | 12.74007 | 4105 ft | 245 kts | 96° |
| 2026-05-04 17:43 | 55.86219 | 12.77033 | 4278 ft | 251 kts | 96° |
| 2026-05-04 17:43 | 55.85989 | 12.80225 | 4167 ft | 267 kts | 96° |
| 2026-05-04 17:43 | 55.85803 | 12.83410 | 4129 ft | 246 kts | 95° |
| 2026-05-04 17:44 | 55.85312 | 12.86342 | 3963 ft | 255 kts | 128° |
| 2026-05-04 17:44 | 55.84086 | 12.88541 | 3839 ft | 242 kts | 137° |
| 2026-05-04 17:44 | 55.82908 | 12.90615 | 3728 ft | 236 kts | 136° |
| 2026-05-04 17:44 | 55.81785 | 12.92600 | 3714 ft | 223 kts | 139° |
| 2026-05-04 17:45 | 55.80612 | 12.94333 | 3664 ft | 216 kts | 155° |
| 2026-05-04 17:45 | 55.79125 | 12.94874 | 3503 ft | 230 kts | 190° |
| 2026-05-04 17:45 | 55.77636 | 12.93726 | 3429 ft | 242 kts | 223° |
| 2026-05-04 17:45 | 55.76734 | 12.91269 | 3198 ft | 235 kts | 249° |
| 2026-05-04 17:46 | 55.76035 | 12.88669 | 2700 ft | 229 kts | 239° |
| 2026-05-04 17:46 | 55.75241 | 12.86518 | 2904 ft | 191 kts | 242° |
| 2026-05-04 17:46 | 55.74522 | 12.84580 | 2537 ft | 194 kts | 240° |
| 2026-05-04 17:46 | 55.73850 | 12.82521 | 2309 ft | 179 kts | 245° |
| 2026-05-04 17:47 | 55.73260 | 12.80717 | 2324 ft | 176 kts | 227° |
| 2026-05-04 17:47 | 55.72132 | 12.79631 | 2366 ft | 180 kts | 204° |
| 2026-05-04 17:47 | 55.71029 | 12.78937 | 2335 ft | 163 kts | 206° |
| 2026-05-04 17:47 | 55.70013 | 12.78176 | 2301 ft | 168 kts | 212° |
| 2026-05-04 17:48 | 55.69022 | 12.77022 | 1993 ft | 167 kts | 223° |
| 2026-05-04 17:48 | 55.68130 | 12.75672 | 1709 ft | 172 kts | 226° |
| 2026-05-04 17:48 | 55.67285 | 12.74235 | 1329 ft | 167 kts | 230° |
| 2026-05-04 17:48 | 55.66455 | 12.72811 | 1011 ft | 163 kts | 226° |
| 2026-05-04 17:49 | 55.65593 | 12.71502 | 673 ft | 160 kts | 223° |
| 2026-05-04 17:49 | 55.64761 | 12.70245 | 463 ft | 158 kts | 225° |
| 2026-05-04 17:49 | 55.63950 | 12.68915 | 221 ft | 158 kts | 224° |
| 2026-05-04 17:49 | 55.63138 | 12.67685 | 158 ft | 145 kts | 226° |
| 2026-05-04 17:50 | 55.62435 | 12.66591 | 36 ft | 125 kts | 225° |
| 2026-05-04 17:50 | 55.61868 | 12.65723 | 22 ft | 69 kts | 223° |
| 2026-05-04 17:50 | 55.61802 | 12.65595 | 22 ft | 0 kts | 229° |
| 2026-05-04 17:50 | 55.61802 | 12.65594 | 22 ft | 0 kts | 229° |
| 2026-05-04 17:51 | 55.61799 | 12.65588 | 23 ft | 2 kts | 226° |
| 2026-05-04 17:51 | 55.61790 | 12.65574 | 20 ft | 1 kts | 223° |
| 2026-05-04 17:51 | 55.61785 | 12.65565 | 19 ft | 0 kts | 223° |